Terminal Aerodrome Forecast
Issued by NWS

Home | Current Version | Previous Version | Text Only | Print | Product List | Glossary On
Versions: 1 2 3 4 5 6 7 8 9 10 11 12 13 14
000
FTUS44 KLUB 032329
TAFCDS
TAF
KCDS 032329Z 0400/0424 16011KT P6SM BKN200
     FM041300 18012KT P6SM OVC020
     FM041800 16015G22KT P6SM BKN050=

USA.gov is the U.S. government's official web portal to all federal, state and local government web resources and services.